createdAt,value
2018-04-11T00:00:01.806Z,83.13
2018-04-11T00:01:02.054Z,81.79
2018-04-11T00:02:01.768Z,81.32
2018-04-11T00:03:02.018Z,80.74
2018-04-11T00:04:01.742Z,80.74
2018-04-11T00:05:01.727Z,81.41
2018-04-11T00:06:01.716Z,80.84
2018-04-11T00:07:01.702Z,79.12
2018-04-11T00:08:01.742Z,78.55
2018-04-11T00:09:01.945Z,77.5
2018-04-11T00:10:01.663Z,77.59
2018-04-11T00:11:01.662Z,77.69
2018-04-11T00:12:01.901Z,77.59
2018-04-11T00:13:01.883Z,77.78
2018-04-11T00:14:01.612Z,78.74
2018-04-11T00:15:01.599Z,78.45
2018-04-11T00:16:01.842Z,79.02
2018-04-11T00:17:01.834Z,78.93
2018-04-11T00:18:01.557Z,77.11
2018-04-11T00:19:01.807Z,77.21
2018-04-11T00:20:01.527Z,77.78
2018-04-11T00:21:01.513Z,77.3
2018-04-11T00:22:01.506Z,78.36
2018-04-11T00:23:01.758Z,77.78
2018-04-11T00:24:01.473Z,77.11
2018-04-11T00:25:01.467Z,76.82
2018-04-11T00:26:01.714Z,76.73
2018-04-11T00:27:01.699Z,77.3
2018-04-11T00:28:01.419Z,77.01
2018-04-11T00:29:01.409Z,78.16
2018-04-11T00:30:01.655Z,78.55
2018-04-11T00:31:01.652Z,77.5
2018-04-11T00:32:01.361Z,78.16
2018-04-11T00:33:01.353Z,78.16
2018-04-11T00:34:01.603Z,77.97
2018-04-11T00:35:01.600Z,78.16
2018-04-11T00:36:01.579Z,78.13
2018-04-11T00:37:01.296Z,77.97
2018-04-11T00:38:01.281Z,76.54
2018-04-11T00:39:01.531Z,75.96
2018-04-11T00:40:01.257Z,77.21
2018-04-11T00:41:01.504Z,77.11
2018-04-11T00:42:01.226Z,77.5
2018-04-11T00:43:01.480Z,77.21
2018-04-11T00:44:01.466Z,75.83
2018-04-11T00:45:01.458Z,75.49
2018-04-11T00:46:01.173Z,76.35
2018-04-11T00:47:01.156Z,76.06
2018-04-11T00:48:01.143Z,76.45
2018-04-11T00:49:01.402Z,76.64
2018-04-11T00:50:01.386Z,76.82
2018-04-11T00:51:01.368Z,76.25
2018-04-11T00:52:01.089Z,76.35
2018-04-11T00:53:01.074Z,74.82
2018-04-11T00:54:01.061Z,75.01
2018-04-11T00:55:01.045Z,74.63
2018-04-11T00:56:01.308Z,73.39
2018-04-11T00:57:01.283Z,73.19
2018-04-11T00:58:01.274Z,73.58
2018-04-11T00:59:01.256Z,72.24
2018-04-11T01:00:01.248Z,71.38
2018-04-11T01:01:01.231Z,72.14
2018-04-11T01:02:00.953Z,71.57
2018-04-11T01:03:00.937Z,72.43
2018-04-11T01:04:01.188Z,71.57
2018-04-11T01:05:01.173Z,70.81
2018-04-11T01:06:01.160Z,70.23
2018-04-11T01:07:01.152Z,69.95
2018-04-11T01:08:00.868Z,70.42
2018-04-11T01:09:00.856Z,71.19
2018-04-11T01:10:01.104Z,71.19
2018-04-11T01:11:01.092Z,70.33
2018-04-11T01:12:01.079Z,70.33
2018-04-11T01:13:01.140Z,70.71
2018-04-11T01:14:01.055Z,70.61
2018-04-11T01:15:01.049Z,70.96
2018-04-11T01:16:01.025Z,71.25
2018-04-11T01:17:01.012Z,71.06
2018-04-11T01:18:00.732Z,71.72
2018-04-11T01:19:00.719Z,70.1
2018-04-11T01:20:00.706Z,70.67
2018-04-11T01:21:00.956Z,70.01
2018-04-11T01:22:00.948Z,69.82
2018-04-11T01:23:00.939Z,70.1
2018-04-11T01:24:00.915Z,68.38
2018-04-11T01:25:00.637Z,69.24
2018-04-11T01:26:00.894Z,69.15
2018-04-11T01:27:00.606Z,67.52
2018-04-11T01:28:00.861Z,68.86
2018-04-11T01:29:00.847Z,69.05
2018-04-11T01:30:00.836Z,69.62
2018-04-11T01:31:00.558Z,70.1
2018-04-11T01:32:01.004Z,70.2
2018-04-11T01:33:00.792Z,71.06
2018-04-11T01:34:00.515Z,71.44
2018-04-11T01:35:00.500Z,71.44
2018-04-11T01:36:00.749Z,71.72
2018-04-11T01:37:00.737Z,71.06
2018-04-11T01:38:00.457Z,71.34
2018-04-11T01:39:00.712Z,70.96
2018-04-11T01:40:00.430Z,70.67
2018-04-11T01:41:00.420Z,70.67
2018-04-11T01:42:00.662Z,68.44
2018-04-11T01:43:00.657Z,68.76
2018-04-11T01:44:00.374Z,69.21
2018-04-11T01:45:00.630Z,69.34
2018-04-11T01:46:00.612Z,68.67
2018-04-11T01:47:00.334Z,69.62
2018-04-11T01:48:00.586Z,69.53
2018-04-11T01:49:00.306Z,69.49
2018-04-11T01:50:00.290Z,70.07
2018-04-11T01:51:00.540Z,69.78
2018-04-11T01:52:00.533Z,69.87
2018-04-11T01:53:00.252Z,70.36
2018-04-11T01:54:00.503Z,70.92
2018-04-11T01:55:00.486Z,70.83
2018-04-11T01:56:00.478Z,70.83
2018-04-11T01:57:00.475Z,71.02
2018-04-11T01:58:00.182Z,71.12
2018-04-11T01:59:00.431Z,71.21
2018-04-11T02:00:00.425Z,70.83
2018-04-11T02:01:00.141Z,71.78
2018-04-11T02:02:00.125Z,71.69
2018-04-11T02:03:00.383Z,70.36
2018-04-11T02:04:00.365Z,70.36
2018-04-11T02:05:00.082Z,69.78
2018-04-11T02:06:00.338Z,70.26
2018-04-11T02:07:00.330Z,70.36
2018-04-11T02:08:00.311Z,70.07
2018-04-11T02:09:00.296Z,70.45
2018-04-11T02:10:00.013Z,70.07
2018-04-11T02:11:00.269Z,70.16
2018-04-11T02:12:00.254Z,69.78
2018-04-11T02:12:59.972Z,70.54
2018-04-11T02:14:00.225Z,70.64
2018-04-11T02:14:59.947Z,71.41
2018-04-11T02:15:59.934Z,71.02
2018-04-11T02:17:00.177Z,69.21
2018-04-11T02:18:00.169Z,69.4
2018-04-11T02:19:00.154Z,69.59
2018-04-11T02:20:00.142Z,69.21
2018-04-11T02:21:00.133Z,68.54
2018-04-11T02:21:59.843Z,68.26
2018-04-11T02:22:59.833Z,68.35
2018-04-11T02:23:59.825Z,68.44
2018-04-11T02:25:00.071Z,69.11
2018-04-11T02:26:00.055Z,68.92
2018-04-11T02:27:00.045Z,68.92
2018-04-11T02:27:59.758Z,69.11
2018-04-11T02:28:59.805Z,68.63
2018-04-11T02:30:00.006Z,69.21
2018-04-11T02:30:59.721Z,68.92
2018-04-11T02:32:00.110Z,67.97
2018-04-11T02:32:59.958Z,68.54
2018-04-11T02:33:59.938Z,66.06
2018-04-11T02:34:59.929Z,66.25
2018-04-11T02:35:59.660Z,66.25
2018-04-11T02:36:59.971Z,66.63
2018-04-11T02:37:59.624Z,67.11
2018-04-11T02:38:59.613Z,67.21
2018-04-11T02:39:59.858Z,67.4
2018-04-11T02:40:59.845Z,67.3
2018-04-11T02:41:59.563Z,67.3
2018-04-11T02:42:59.829Z,67.21
2018-04-11T02:43:59.812Z,66.53
2018-04-11T02:44:59.796Z,66.06
2018-04-11T02:45:59.777Z,66.06
2018-04-11T02:46:59.761Z,66.35
2018-04-11T02:47:59.479Z,63.96
2018-04-11T02:48:59.474Z,62.62
2018-04-11T02:49:59.719Z,61.76
2018-04-11T02:50:59.704Z,61.19
2018-04-11T02:51:59.686Z,61.1
2018-04-11T02:52:59.680Z,60.81
2018-04-11T02:53:59.659Z,61.19
2018-04-11T02:54:59.384Z,61.29
2018-04-11T02:55:59.634Z,61.19
2018-04-11T02:56:59.614Z,60.21
2018-04-11T02:57:59.343Z,60.24
2018-04-11T02:58:59.601Z,59.28
2018-04-11T02:59:59.574Z,59.76
2018-04-11T03:00:59.567Z,59.85
2018-04-11T03:01:59.550Z,59.95
2018-04-11T03:02:59.277Z,60.3
2018-04-11T03:03:59.257Z,60.68
2018-04-11T03:04:59.243Z,61.07
2018-04-11T03:05:59.492Z,61.07
2018-04-11T03:06:59.211Z,61.25
2018-04-11T03:07:59.199Z,61.35
2018-04-11T03:08:59.190Z,60.68
2018-04-11T03:09:59.432Z,58.29
2018-04-11T03:10:59.422Z,57.43
2018-04-11T03:11:59.139Z,57.34
2018-04-11T03:12:59.394Z,57.43
2018-04-11T03:13:59.381Z,57.15
2018-04-11T03:14:59.363Z,56.38
2018-04-11T03:15:59.345Z,56.32
2018-04-11T03:16:59.071Z,56.67
2018-04-11T03:17:59.318Z,55.84
2018-04-11T03:18:59.304Z,55.55
2018-04-11T03:19:59.295Z,56.41
2018-04-11T03:20:59.273Z,56.04
2018-04-11T03:21:59.269Z,55.65
2018-04-11T03:22:58.980Z,55.84
2018-04-11T03:23:59.234Z,55.46
2018-04-11T03:24:59.223Z,55.27
2018-04-11T03:25:59.205Z,55.46
2018-04-11T03:26:58.925Z,55.46
2018-04-11T03:27:58.909Z,55.27
2018-04-11T03:28:59.162Z,55.55
2018-04-11T03:29:58.879Z,55.36
2018-04-11T03:30:59.141Z,55.18
2018-04-11T03:31:58.858Z,55.18
2018-04-11T03:32:58.847Z,56.04
2018-04-11T03:33:58.823Z,55.65
2018-04-11T03:34:58.810Z,56.04
2018-04-11T03:35:58.793Z,55.65
2018-04-11T03:36:59.042Z,56.04
2018-04-11T03:37:59.035Z,56.13
2018-04-11T03:38:58.755Z,55.84
2018-04-11T03:39:58.736Z,56.41
2018-04-11T03:40:58.989Z,56.32
2018-04-11T03:41:58.973Z,56.32
2018-04-11T03:42:58.703Z,56.13
2018-04-11T03:43:58.948Z,55.94
2018-04-11T03:44:58.665Z,56.04
2018-04-11T03:45:58.922Z,56.04
2018-04-11T03:46:58.647Z,56.23
2018-04-11T03:47:58.624Z,55.68
2018-04-11T03:48:58.878Z,55.84
2018-04-11T03:49:58.598Z,56.13
2018-04-11T03:50:58.850Z,56.25
2018-04-11T03:51:58.837Z,56.23
2018-04-11T03:52:58.557Z,56.25
2018-04-11T03:53:58.547Z,56.45
2018-04-11T03:54:58.788Z,56.13
2018-04-11T03:55:58.775Z,55.68
2018-04-11T03:56:58.763Z,55.77
2018-04-11T03:57:58.743Z,55.87
2018-04-11T03:58:58.735Z,56.06
2018-04-11T03:59:58.452Z,55.4
2018-04-11T04:00:58.711Z,55.49
2018-04-11T04:01:58.436Z,55.46
2018-04-11T04:02:58.412Z,55.3
2018-04-11T04:03:58.660Z,55.01
2018-04-11T04:04:58.649Z,55.11
2018-04-11T04:05:58.632Z,54.72
2018-04-11T04:06:58.623Z,54.63
2018-04-11T04:07:58.611Z,54.15
2018-04-11T04:08:58.326Z,54.34
2018-04-11T04:09:58.313Z,54.44
2018-04-11T04:10:58.304Z,54.82
2018-04-11T04:11:58.569Z,55.4
2018-04-11T04:12:58.540Z,54.91
2018-04-11T04:13:58.621Z,54.91
2018-04-11T04:14:58.560Z,55.11
2018-04-11T04:15:58.496Z,55.49
2018-04-11T04:16:58.213Z,55.49
2018-04-11T04:17:58.467Z,55.58
2018-04-11T04:18:58.191Z,55.4
2018-04-11T04:19:58.436Z,55.87
2018-04-11T04:20:58.169Z,56.25
2018-04-11T04:21:58.144Z,55.87
2018-04-11T04:22:58.398Z,55.96
2018-04-11T04:23:58.380Z,56.25
2018-04-11T04:24:58.570Z,56.73
2018-04-11T04:25:58.357Z,56.63
2018-04-11T04:26:58.342Z,56.45
2018-04-11T04:27:58.063Z,57.4
2018-04-11T04:28:58.319Z,57.4
2018-04-11T04:29:58.296Z,57.11
2018-04-11T04:30:58.287Z,57.87
2018-04-11T04:31:58.004Z,57.78
2018-04-11T04:32:58.255Z,57.78
2018-04-11T04:33:57.977Z,57.94
2018-04-11T04:34:58.232Z,58.33
2018-04-11T04:35:58.216Z,57.94
2018-04-11T04:36:57.932Z,57.78
2018-04-11T04:37:57.915Z,57.31
2018-04-11T04:38:58.168Z,57.28
2018-04-11T04:39:58.155Z,56.45
2018-04-11T04:40:58.141Z,56.25
2018-04-11T04:41:57.863Z,56.73
2018-04-11T04:42:57.858Z,56.45
2018-04-11T04:43:58.103Z,57.28
2018-04-11T04:44:58.085Z,58.36
2018-04-11T04:45:58.070Z,58.83
2018-04-11T04:46:57.793Z,59.19
2018-04-11T04:47:57.782Z,59.59
2018-04-11T04:48:57.771Z,61
2018-04-11T04:49:58.013Z,61.76
2018-04-11T04:50:58.004Z,62.34
2018-04-11T04:51:58.007Z,63.03
2018-04-11T04:52:57.985Z,63.99
2018-04-11T04:53:57.698Z,64.91
2018-04-11T04:54:57.680Z,65.77
2018-04-11T04:55:57.931Z,66.15
2018-04-11T04:56:57.916Z,66.47
2018-04-11T04:57:57.638Z,66.15
2018-04-11T04:58:57.626Z,67.01
2018-04-11T04:59:57.620Z,66.92
2018-04-11T05:00:57.598Z,68.16
2018-04-11T05:01:57.848Z,68.54
2018-04-11T05:02:57.574Z,68.82
2018-04-11T05:03:57.551Z,69.31
2018-04-11T05:04:57.542Z,68.82
2018-04-11T05:05:57.846Z,69.59
2018-04-11T05:06:57.788Z,70.07
2018-04-11T05:07:57.503Z,70.07
2018-04-11T05:08:57.748Z,70.54
2018-04-11T05:09:57.468Z,70.73
2018-04-11T05:10:57.722Z,71.59
2018-04-11T05:11:57.709Z,71.41
2018-04-11T05:12:57.421Z,71.5
2018-04-11T05:13:57.681Z,71.69
2018-04-11T05:14:57.397Z,71.98
2018-04-11T05:15:57.652Z,71.88
2018-04-11T05:16:57.380Z,73.32
2018-04-11T05:17:57.356Z,73.41
2018-04-11T05:18:57.337Z,73.22
2018-04-11T05:19:57.324Z,73.22
2018-04-11T05:20:57.580Z,74.37
2018-04-11T05:21:57.562Z,73.12
2018-04-11T05:22:57.545Z,73.5
2018-04-11T05:23:57.266Z,73.41
2018-04-11T05:24:57.520Z,73.98
2018-04-11T05:25:57.239Z,74.9
2018-04-11T05:26:57.492Z,75.32
2018-04-11T05:27:57.479Z,75.32
2018-04-11T05:28:57.200Z,75.51
2018-04-11T05:29:57.456Z,75.76
2018-04-11T05:30:57.170Z,75.76
2018-04-11T05:31:57.153Z,76.62
2018-04-11T05:32:57.137Z,75.76
2018-04-11T05:33:57.385Z,76.33
2018-04-11T05:34:57.112Z,75.95
2018-04-11T05:35:57.096Z,76.46
2018-04-11T05:36:57.351Z,76.75
2018-04-11T05:37:57.331Z,76.56
2018-04-11T05:38:57.052Z,76.9
2018-04-11T05:39:57.303Z,76.71
2018-04-11T05:40:57.296Z,76.81
2018-04-11T05:41:57.276Z,76.9
2018-04-11T05:42:57.264Z,76.71
2018-04-11T05:43:56.978Z,76.9
2018-04-11T05:44:56.964Z,76.62
2018-04-11T05:45:56.947Z,77
2018-04-11T05:46:56.936Z,76.81
2018-04-11T05:47:56.973Z,77.67
2018-04-11T05:48:56.911Z,76.81
2018-04-11T05:49:57.158Z,77.76
2018-04-11T05:50:57.144Z,77.67
2018-04-11T05:51:56.861Z,78.05
2018-04-11T05:52:57.112Z,78.43
2018-04-11T05:53:56.834Z,79.19
2018-04-11T05:54:57.083Z,78.91
2018-04-11T05:55:57.068Z,79.19
2018-04-11T05:56:57.053Z,79.86
2018-04-11T05:57:57.040Z,79.28
2018-04-11T05:58:57.025Z,79.96
2018-04-11T05:59:57.013Z,79.48
2018-04-11T06:00:57.045Z,79.96
2018-04-11T06:01:56.983Z,80.05
2018-04-11T06:02:56.968Z,80.33
2018-04-11T06:03:56.687Z,79.96
2018-04-11T06:04:56.674Z,79.48
2018-04-11T06:05:57.045Z,79.96
2018-04-11T06:06:56.913Z,79.77
2018-04-11T06:07:56.897Z,79.19
2018-04-11T06:08:56.876Z,79.77
2018-04-11T06:09:56.864Z,79.67
2018-04-11T06:10:56.584Z,79.77
2018-04-11T06:11:56.566Z,79.86
2018-04-11T06:12:56.561Z,80.05
2018-04-11T06:13:56.809Z,80.2
2018-04-11T06:14:56.525Z,80.33
2018-04-11T06:15:56.772Z,80.43
2018-04-11T06:16:56.869Z,80.43
2018-04-11T06:17:56.743Z,79.96
2018-04-11T06:18:56.463Z,80.24
2018-04-11T06:19:56.449Z,80.53
2018-04-11T06:20:56.435Z,80.62
2018-04-11T06:21:56.685Z,80.53
2018-04-11T06:22:56.758Z,80.81
2018-04-11T06:23:56.396Z,80.43
2018-04-11T06:24:56.577Z,80.05
2018-04-11T06:25:56.629Z,80.33
2018-04-11T06:26:56.350Z,80.58
2018-04-11T06:27:56.599Z,80.24
2018-04-11T06:28:56.318Z,80.72
2018-04-11T06:29:56.567Z,80.81
2018-04-11T06:30:56.553Z,81.1
2018-04-11T06:31:56.536Z,80.72
2018-04-11T06:32:56.258Z,81.29
2018-04-11T06:33:56.507Z,81.48
2018-04-11T06:34:56.490Z,81.29
2018-04-11T06:35:56.480Z,81.67
2018-04-11T06:36:56.463Z,81.86
2018-04-11T06:37:56.447Z,81.58
2018-04-11T06:38:56.234Z,82.15
2018-04-11T06:39:56.424Z,81.96
2018-04-11T06:40:56.140Z,82.24
2018-04-11T06:41:56.440Z,82.34
2018-04-11T06:42:56.372Z,83.11
2018-04-11T06:43:56.099Z,83.39
2018-04-11T06:44:56.357Z,83.29
2018-04-11T06:45:56.064Z,83.77
2018-04-11T06:46:56.321Z,83.87
2018-04-11T06:47:56.302Z,83.96
2018-04-11T06:48:56.293Z,83.48
2018-04-11T06:49:56.271Z,83.77
2018-04-11T06:50:56.264Z,84.34
2018-04-11T06:51:56.244Z,83.96
2018-04-11T06:52:56.235Z,84.39
2018-04-11T06:53:55.955Z,84.82
2018-04-11T06:54:56.202Z,84.53
2018-04-11T06:55:56.190Z,84.29
2018-04-11T06:56:55.909Z,84.96
2018-04-11T06:57:56.157Z,84.77
2018-04-11T06:58:56.144Z,85.53
2018-04-11T06:59:55.868Z,85.82
2018-04-11T07:00:56.116Z,86.01
2018-04-11T07:01:56.118Z,85.72
2018-04-11T07:02:56.085Z,86.87
2018-04-11T07:03:56.078Z,86.24
2018-04-11T07:04:56.059Z,87.92
2018-04-11T07:05:56.043Z,87.48
2018-04-11T07:06:56.033Z,88.15
2018-04-11T07:07:55.751Z,87.58
2018-04-11T07:08:56.010Z,87.48
2018-04-11T07:09:55.989Z,87.2
2018-04-11T07:10:55.972Z,89.01
2018-04-11T07:11:55.694Z,88.44
2018-04-11T07:12:55.688Z,89.39
2018-04-11T07:13:55.667Z,88.63
2018-04-11T07:14:55.662Z,88.06
2018-04-11T07:15:55.903Z,88.73
2018-04-11T07:16:55.891Z,89.39
2018-04-11T07:17:55.611Z,89.3
2018-04-11T07:18:55.599Z,89.63
2018-04-11T07:19:55.902Z,89.06
2018-04-11T07:20:55.570Z,88.77
2018-04-11T07:21:56.055Z,89.53
2018-04-11T07:22:55.809Z,89.82
2018-04-11T07:23:55.794Z,89.92
2018-04-11T07:24:55.790Z,89.73
2018-04-11T07:25:55.539Z,90.78
2018-04-11T07:26:55.490Z,89.73
2018-04-11T07:27:55.479Z,90.39
2018-04-11T07:28:55.464Z,90.01
2018-04-11T07:29:55.722Z,89.92
2018-04-11T07:30:55.441Z,91.06
2018-04-11T07:31:55.438Z,91.49
2018-04-11T07:32:55.681Z,91.2
2018-04-11T07:33:55.404Z,91.3
2018-04-11T07:34:55.654Z,91.68
2018-04-11T07:35:55.375Z,92.54
2018-04-11T07:36:55.631Z,91.78
2018-04-11T07:37:55.623Z,91.68
2018-04-11T07:38:55.339Z,93.5
2018-04-11T07:39:55.326Z,92.54
2018-04-11T07:40:55.576Z,92.83
2018-04-11T07:41:55.569Z,94.17
2018-04-11T07:42:55.291Z,93.88
2018-04-11T07:43:55.275Z,95.36
2018-04-11T07:44:55.526Z,94.6
2018-04-11T07:45:55.521Z,94.98
2018-04-11T07:46:55.239Z,94.07
2018-04-11T07:47:55.497Z,93.5
2018-04-11T07:48:55.212Z,94.17
2018-04-11T07:49:55.468Z,92.74
2018-04-11T07:50:55.188Z,93.12
2018-04-11T07:51:55.439Z,93.88
2018-04-11T07:52:55.436Z,92.54
2018-04-11T07:53:55.151Z,93.21
2018-04-11T07:54:55.407Z,94.17
2018-04-11T07:55:55.124Z,93.4
2018-04-11T07:56:55.116Z,93.79
2018-04-11T07:57:55.099Z,93.21
2018-04-11T07:58:55.351Z,93.6
2018-04-11T07:59:55.390Z,93.6
2018-04-11T08:00:55.065Z,92.54
2018-04-11T08:01:55.321Z,92.35
2018-04-11T08:02:55.042Z,92.49
2018-04-11T08:03:55.027Z,93.26
2018-04-11T08:04:55.281Z,93.74
2018-04-11T08:05:55.002Z,94.02
2018-04-11T08:06:54.993Z,94.21
2018-04-11T08:07:54.980Z,95.65
2018-04-11T08:08:55.235Z,94.31
2018-04-11T08:09:55.217Z,94.12
2018-04-11T08:10:55.205Z,95.75
2018-04-11T08:11:55.194Z,95.89
2018-04-11T08:12:55.188Z,97.23
2018-04-11T08:13:55.173Z,96.66
2018-04-11T08:14:55.169Z,97.33
2018-04-11T08:15:54.882Z,96.18
2018-04-11T08:16:55.140Z,97.09
2018-04-11T08:17:55.122Z,99.99
2018-04-11T08:18:54.848Z,99.99
2018-04-11T08:19:55.103Z,99.99
2018-04-11T08:20:55.093Z,99.99
2018-04-11T08:21:55.092Z,99.99
2018-04-11T08:22:54.809Z,99.99
2018-04-11T08:23:54.797Z,99.99
2018-04-11T08:24:55.253Z,99.99
2018-04-11T08:25:55.047Z,99.99
2018-04-11T08:26:54.772Z,99.99
2018-04-11T08:27:54.763Z,99.99
2018-04-11T08:28:55.023Z,97.81
2018-04-11T08:29:55.105Z,98.34
2018-04-11T08:30:55.008Z,97.77
2018-04-11T08:31:54.997Z,93.47
2018-04-11T08:32:54.724Z,96.27
2018-04-11T08:33:54.718Z,95.21
2018-04-11T08:34:54.979Z,95.69
2018-04-11T08:35:54.699Z,95.79
2018-04-11T08:36:54.966Z,96.56
2018-04-11T08:37:54.690Z,93.76
2018-04-11T08:38:54.684Z,90.23
2018-04-11T08:39:54.941Z,89.12
2018-04-11T08:40:54.673Z,90.57
2018-04-11T08:41:54.665Z,89.89
2018-04-11T08:42:54.924Z,87.29
2018-04-11T08:43:54.917Z,88.01
2018-04-11T08:44:54.648Z,84.05
2018-04-11T08:45:54.645Z,83.72
2018-04-11T08:46:54.907Z,85.55
2018-04-11T08:47:54.896Z,86.61
2018-04-11T08:48:54.902Z,87
2018-04-11T08:49:54.886Z,87.73
2018-04-11T08:50:54.619Z,87.73
2018-04-11T08:51:54.612Z,87.82
2018-04-11T08:52:54.877Z,86.28
2018-04-11T08:53:54.864Z,86.86
2018-04-11T08:54:54.864Z,87.82
2018-04-11T08:55:54.593Z,87.82
2018-04-11T08:56:54.587Z,88.98
2018-04-11T08:57:54.586Z,88.21
2018-04-11T08:58:54.853Z,87.2
2018-04-11T08:59:54.850Z,86.08
2018-04-11T09:00:54.835Z,84.54
2018-04-11T09:01:54.570Z,84.16
2018-04-11T09:02:54.565Z,84.98
2018-04-11T09:03:54.824Z,86.52
2018-04-11T09:04:54.820Z,85.02
2018-04-11T09:05:54.548Z,85.22
2018-04-11T09:06:54.814Z,83.52
2018-04-11T09:07:54.544Z,84.68
2018-04-11T09:08:54.806Z,82.26
2018-04-11T09:09:54.802Z,84.54
2018-04-11T09:10:54.798Z,84.64
2018-04-11T09:11:54.531Z,81.78
2018-04-11T09:12:54.797Z,81.2
2018-04-11T09:13:54.524Z,81.3
2018-04-11T09:14:54.525Z,79.37
2018-04-11T09:15:54.785Z,80.05
2018-04-11T09:16:54.776Z,80.82
2018-04-11T09:17:54.775Z,82.36
2018-04-11T09:18:54.511Z,81.78
2018-04-11T09:19:54.769Z,82.56
2018-04-11T09:20:54.504Z,81.68
2018-04-11T09:21:54.767Z,82.17
2018-04-11T09:22:54.758Z,80.58
2018-04-11T09:23:54.756Z,80.68
2018-04-11T09:24:54.487Z,82.07
2018-04-11T09:25:54.747Z,82.07
2018-04-11T09:26:54.748Z,80.57
2018-04-11T09:27:54.764Z,81.68
2018-04-11T09:28:54.738Z,81.01
2018-04-11T09:29:54.477Z,79.8
2018-04-11T09:30:54.467Z,78.58
2018-04-11T09:31:54.579Z,78.38
2018-04-11T09:32:54.738Z,78.52
2018-04-11T09:33:54.461Z,76.97
2018-04-11T09:34:54.456Z,78.61
2018-04-11T09:35:54.454Z,78.17
2018-04-11T09:36:54.451Z,77.01
2018-04-11T09:37:54.448Z,76.59
2018-04-11T09:38:54.707Z,75.75
2018-04-11T09:39:54.444Z,75.75
2018-04-11T09:40:54.712Z,77.36
2018-04-11T09:41:54.469Z,78.91
2018-04-11T09:42:54.698Z,79.83
2018-04-11T09:43:54.695Z,77.32
2018-04-11T09:44:54.697Z,77.03
2018-04-11T09:45:54.429Z,77.9
2018-04-11T09:46:54.424Z,77.9
2018-04-11T09:47:54.422Z,76.55
2018-04-11T09:48:54.685Z,77.38
2018-04-11T09:49:54.411Z,76.95
2018-04-11T09:50:54.676Z,79.27
2018-04-11T09:51:54.753Z,82.13
2018-04-11T09:52:54.682Z,81.22
2018-04-11T09:53:54.670Z,80.26
2018-04-11T09:54:54.658Z,82.43
2018-04-11T09:55:54.665Z,81.72
2018-04-11T09:56:54.388Z,83.94
2018-04-11T09:57:54.647Z,82.68
2018-04-11T09:58:54.643Z,83.31
2018-04-11T09:59:54.639Z,85.3
2018-04-11T10:00:54.631Z,85.49
2018-04-11T10:01:54.629Z,87.32
2018-04-11T10:02:54.633Z,89.24
2018-04-11T10:03:54.620Z,90.83
2018-04-11T10:04:54.610Z,92.38
2018-04-11T10:05:54.338Z,92.81
2018-04-11T10:06:54.626Z,94.73
2018-04-11T10:07:54.327Z,97.33
2018-04-11T10:08:54.585Z,98.87
2018-04-11T10:09:54.314Z,99.93
2018-04-11T10:10:54.571Z,98.24
2018-04-11T10:11:54.567Z,99.99
2018-04-11T10:12:54.294Z,99.99
2018-04-11T10:13:54.553Z,99.99
2018-04-11T10:14:54.549Z,99.99
2018-04-11T10:15:54.271Z,99.99
2018-04-11T10:16:54.533Z,99.99
2018-04-11T10:17:54.262Z,99.99
2018-04-11T10:18:54.523Z,99.99
2018-04-11T10:19:54.507Z,99.99
2018-04-11T10:20:54.233Z,99.99
2018-04-11T10:21:54.224Z,99.99
2018-04-11T10:22:54.217Z,99.99
2018-04-11T10:23:54.208Z,99.99
2018-04-11T10:24:54.824Z,99.99
2018-04-11T10:25:54.458Z,99.99
2018-04-11T10:26:54.447Z,99.99
2018-04-11T10:27:54.177Z,99.99
2018-04-11T10:28:54.170Z,99.99
2018-04-11T10:29:54.424Z,99.99
2018-04-11T10:30:54.150Z,99.99
2018-04-11T10:31:54.411Z,99.99
2018-04-11T10:32:54.132Z,99.99
2018-04-11T10:33:54.391Z,99.99
2018-04-11T10:34:54.378Z,99.99
2018-04-11T10:35:54.106Z,99.99
2018-04-11T10:36:54.360Z,99.99
2018-04-11T10:37:54.353Z,99.99
2018-04-11T10:38:54.345Z,99.99
2018-04-11T10:39:54.335Z,99.99
2018-04-11T10:40:54.330Z,99.99
2018-04-11T10:41:54.053Z,99.99
2018-04-11T10:42:54.308Z,99.99
2018-04-11T10:43:54.039Z,99.99
2018-04-11T10:44:54.314Z,99.99
2018-04-11T10:45:54.016Z,99.99
2018-04-11T10:46:54.007Z,99.99
2018-04-11T10:47:54.262Z,99.99
2018-04-11T10:48:53.988Z,99.99
2018-04-11T10:49:54.244Z,99.99
2018-04-11T10:50:54.235Z,99.99
2018-04-11T10:51:54.230Z,99.99
2018-04-11T10:52:54.325Z,99.99
2018-04-11T10:53:53.944Z,99.99
2018-04-11T10:54:53.940Z,99.99
2018-04-11T10:55:54.198Z,99.99
2018-04-11T10:56:54.185Z,99.99
2018-04-11T10:57:53.933Z,99.99
2018-04-11T10:58:53.901Z,99.99
2018-04-11T10:59:54.164Z,99.99
2018-04-11T11:00:53.922Z,99.99
2018-04-11T11:01:54.141Z,99.99
2018-04-11T11:02:54.130Z,99.99
2018-04-11T11:03:54.131Z,99.99
2018-04-11T11:04:54.115Z,99.99
2018-04-11T11:05:54.111Z,99.99
2018-04-11T11:06:54.101Z,99.99
2018-04-11T11:07:54.089Z,99.99
2018-04-11T11:08:53.820Z,99.99
2018-04-11T11:09:54.076Z,99.99
2018-04-11T11:10:54.067Z,99.99
2018-04-11T11:11:54.059Z,99.99
2018-04-11T11:12:54.047Z,99.99
2018-04-11T11:13:54.041Z,99.64
2018-04-11T11:14:53.769Z,97.81
2018-04-11T11:15:53.760Z,99.78
2018-04-11T11:16:54.013Z,99.68
2018-04-11T11:17:54.047Z,97.67
2018-04-11T11:18:53.736Z,99.99
2018-04-11T11:19:53.999Z,99.99
2018-04-11T11:20:53.983Z,99.99
2018-04-11T11:21:53.721Z,99.99
2018-04-11T11:22:53.714Z,99.99
2018-04-11T11:23:53.696Z,99.99
2018-04-11T11:24:53.953Z,99.99
2018-04-11T11:25:53.687Z,99.92
2018-04-11T11:26:53.942Z,99.73
2018-04-11T11:27:53.929Z,99.99
2018-04-11T11:28:53.658Z,99.99
2018-04-11T11:29:53.915Z,99.99
2018-04-11T11:30:53.641Z,97.67
2018-04-11T11:31:53.897Z,97.38
2018-04-11T11:32:53.888Z,94.15
2018-04-11T11:33:53.882Z,93.96
2018-04-11T11:34:53.608Z,94.35
2018-04-11T11:35:53.870Z,93.15
2018-04-11T11:36:53.896Z,94.1
2018-04-11T11:37:53.858Z,94.78
2018-04-11T11:38:53.852Z,91.65
2018-04-11T11:39:53.845Z,89.09
2018-04-11T11:40:53.570Z,88.32
2018-04-11T11:41:53.835Z,87.5
2018-04-11T11:42:53.563Z,88.27
2018-04-11T11:43:53.827Z,86.35
2018-04-11T11:44:53.822Z,87.55
2018-04-11T11:45:53.587Z,87.99
2018-04-11T11:46:53.805Z,89.09
2018-04-11T11:47:53.802Z,87.36
2018-04-11T11:48:53.800Z,88.28
2018-04-11T11:49:53.798Z,88.47
2018-04-11T11:50:53.794Z,89.58
2018-04-11T11:51:53.520Z,89.58
2018-04-11T11:52:53.781Z,89.39
2018-04-11T11:53:53.514Z,89.39
2018-04-11T11:54:53.509Z,89.67
2018-04-11T11:55:53.507Z,91.07
2018-04-11T11:56:53.767Z,90.97
2018-04-11T11:57:53.761Z,92.52
2018-04-11T11:58:53.484Z,92.03
2018-04-11T11:59:53.749Z,94.29
2018-04-11T12:00:53.486Z,90.3
2018-04-11T12:01:53.476Z,89.48
2018-04-11T12:02:53.470Z,90.59
2018-04-11T12:03:53.725Z,91.41
2018-04-11T12:04:53.757Z,95.74
2018-04-11T12:05:53.451Z,96.8
2018-04-11T12:06:53.709Z,94.34
2018-04-11T12:07:53.443Z,93.38
2018-04-11T12:08:53.699Z,90.25
2018-04-11T12:09:53.692Z,90.06
2018-04-11T12:10:53.687Z,87.84
2018-04-11T12:11:53.424Z,87.02
2018-04-11T12:12:53.681Z,87.7
2018-04-11T12:13:53.672Z,87.02
2018-04-11T12:14:53.408Z,88.04
2018-04-11T12:15:53.664Z,87.55
2018-04-11T12:16:53.393Z,88.71
2018-04-11T12:17:53.397Z,87.36
2018-04-11T12:18:53.383Z,87.26
2018-04-11T12:19:53.379Z,87.8
2018-04-11T12:20:53.378Z,88.95
2018-04-11T12:21:53.639Z,90.2
2018-04-11T12:22:53.375Z,90.11
2018-04-11T12:23:53.633Z,89.53
2018-04-11T12:24:53.764Z,88.67
2018-04-11T12:25:53.620Z,90.11
2018-04-11T12:26:53.612Z,91.22
2018-04-11T12:27:53.606Z,91.7
2018-04-11T12:28:53.343Z,90.69
2018-04-11T12:29:53.378Z,90.55
2018-04-11T12:30:53.332Z,92.18
2018-04-11T12:31:53.324Z,93.05
2018-04-11T12:32:53.588Z,90.93
2018-04-11T12:33:53.576Z,93.62
2018-04-11T12:34:53.310Z,91.94
2018-04-11T12:35:53.305Z,92.13
2018-04-11T12:36:53.294Z,90.16
2018-04-11T12:37:53.297Z,94.24
2018-04-11T12:38:53.287Z,88.65
2018-04-11T12:39:53.287Z,86.52
2018-04-11T12:40:53.278Z,83.44
2018-04-11T12:41:53.274Z,81.35
2018-04-11T12:42:53.267Z,78.64
2018-04-11T12:43:53.266Z,75.35
2018-04-11T12:44:53.262Z,74.87
2018-04-11T12:45:53.526Z,76.26
2018-04-11T12:46:53.517Z,76.16
2018-04-11T12:47:53.517Z,74.23
2018-04-11T12:48:53.251Z,73.49
2018-04-11T12:49:53.517Z,72.49
2018-04-11T12:50:53.242Z,75.62
2018-04-11T12:51:53.241Z,74.59
2018-04-11T12:52:53.240Z,72.85
2018-04-11T12:53:53.500Z,71.5